CES2855 ZYTL-ZYCC
Flight info
| Callsign | CES2855 |
|---|---|
| Flight time | N/A |
| Altitude | 37100 |
| Route | VENOS A588 LEMOT |
| Aircraft | A20N/M-SDE2E3FGHIRWXY/LB1 |
Departure
| Time | 2026-04-28 10:15 |
|---|---|
| Airport | Dalian Zhoushuizi International Airport (ZYTL) |
Arrival
| Time | N/A |
|---|---|
| Airport | Changchun Longjia International Airport (ZYCC) |
| Time | Latitude | Longitude | Altitude | Speed | Heading |
|---|---|---|---|---|---|
| 2026-04-28 09:52 | 38.96226 | 121.54242 | 114 ft | 0 kts | 182° |
| 2026-04-28 10:06 | 38.96227 | 121.54242 | 114 ft | 1 kts | 183° |
| 2026-04-28 10:07 | 38.96241 | 121.54243 | 114 ft | 2 kts | 182° |
| 2026-04-28 10:07 | 38.96256 | 121.54243 | 114 ft | 2 kts | 183° |
| 2026-04-28 10:07 | 38.96265 | 121.54244 | 114 ft | 2 kts | 182° |
| 2026-04-28 10:07 | 38.96280 | 121.54240 | 114 ft | 2 kts | 146° |
| 2026-04-28 10:08 | 38.96291 | 121.54225 | 114 ft | 2 kts | 116° |
| 2026-04-28 10:08 | 38.96294 | 121.54214 | 114 ft | 0 kts | 98° |
| 2026-04-28 10:08 | 38.96294 | 121.54204 | 114 ft | 0 kts | 95° |
| 2026-04-28 10:08 | 38.96294 | 121.54205 | 114 ft | 0 kts | 95° |
| 2026-04-28 10:10 | 38.96294 | 121.54211 | 114 ft | 2 kts | 91° |
| 2026-04-28 10:10 | 38.96302 | 121.54260 | 114 ft | 8 kts | 68° |
| 2026-04-28 10:10 | 38.96337 | 121.54343 | 114 ft | 12 kts | 66° |
| 2026-04-28 10:11 | 38.96346 | 121.54461 | 114 ft | 14 kts | 95° |
| 2026-04-28 10:11 | 38.96335 | 121.54606 | 114 ft | 17 kts | 96° |
| 2026-04-28 10:11 | 38.96323 | 121.54764 | 114 ft | 17 kts | 96° |
| 2026-04-28 10:11 | 38.96312 | 121.54902 | 114 ft | 14 kts | 96° |
| 2026-04-28 10:12 | 38.96282 | 121.55029 | 114 ft | 15 kts | 104° |
| 2026-04-28 10:12 | 38.96270 | 121.55164 | 114 ft | 15 kts | 95° |
| 2026-04-28 10:12 | 38.96258 | 121.55306 | 114 ft | 16 kts | 96° |
| 2026-04-28 10:12 | 38.96248 | 121.55448 | 114 ft | 16 kts | 96° |
| 2026-04-28 10:13 | 38.96238 | 121.55573 | 114 ft | 12 kts | 95° |
| 2026-04-28 10:13 | 38.96233 | 121.55672 | 114 ft | 7 kts | 82° |
| 2026-04-28 10:13 | 38.96274 | 121.55717 | 114 ft | 9 kts | 9° |
| 2026-04-28 10:13 | 38.96341 | 121.55725 | 114 ft | 9 kts | 6° |
| 2026-04-28 10:14 | 38.96406 | 121.55719 | 114 ft | 6 kts | 333° |
| 2026-04-28 10:14 | 38.96425 | 121.55691 | 114 ft | 3 kts | 291° |
| 2026-04-28 10:14 | 38.96429 | 121.55653 | 114 ft | 4 kts | 276° |
| 2026-04-28 10:14 | 38.96440 | 121.55514 | 114 ft | 44 kts | 276° |
| 2026-04-28 10:15 | 38.96495 | 121.54820 | 115 ft | 110 kts | 276° |
| 2026-04-28 10:15 | 38.96585 | 121.53602 | 127 ft | 161 kts | 275° |
| 2026-04-28 10:15 | 38.96663 | 121.52147 | 657 ft | 165 kts | 276° |
| 2026-04-28 10:15 | 38.96742 | 121.50701 | 1347 ft | 165 kts | 278° |
| 2026-04-28 10:16 | 38.96826 | 121.49252 | 2022 ft | 165 kts | 280° |
| 2026-04-28 10:16 | 38.96921 | 121.47786 | 2608 ft | 166 kts | 281° |
| 2026-04-28 10:16 | 38.97018 | 121.46323 | 3172 ft | 168 kts | 282° |
| 2026-04-28 10:16 | 38.97123 | 121.44790 | 3622 ft | 178 kts | 281° |
| 2026-04-28 10:17 | 38.97237 | 121.43153 | 3991 ft | 195 kts | 281° |
| 2026-04-28 10:17 | 38.97360 | 121.41341 | 4375 ft | 212 kts | 281° |
| 2026-04-28 10:17 | 38.97488 | 121.39391 | 4744 ft | 231 kts | 280° |
| 2026-04-28 10:17 | 38.97629 | 121.37246 | 5232 ft | 247 kts | 280° |
| 2026-04-28 10:18 | 38.97791 | 121.35033 | 5799 ft | 258 kts | 286° |
| 2026-04-28 10:18 | 38.98495 | 121.32919 | 6398 ft | 258 kts | 313° |
| 2026-04-28 10:18 | 38.99825 | 121.31475 | 7312 ft | 251 kts | 336° |
| 2026-04-28 10:18 | 39.01484 | 121.30859 | 8157 ft | 249 kts | 358° |
| 2026-04-28 10:19 | 39.03172 | 121.31183 | 8982 ft | 252 kts | 20° |
| 2026-04-28 10:19 | 39.04630 | 121.32446 | 9855 ft | 259 kts | 43° |
| 2026-04-28 10:19 | 39.05564 | 121.34465 | 10548 ft | 275 kts | 66° |
| 2026-04-28 10:19 | 39.06019 | 121.36913 | 10955 ft | 293 kts | 72° |
| 2026-04-28 10:20 | 39.06469 | 121.39552 | 11316 ft | 311 kts | 72° |
| 2026-04-28 10:20 | 39.06933 | 121.42304 | 11869 ft | 320 kts | 73° |
| 2026-04-28 10:20 | 39.07407 | 121.45126 | 12542 ft | 324 kts | 73° |
| 2026-04-28 10:20 | 39.07884 | 121.47936 | 13242 ft | 328 kts | 74° |
| 2026-04-28 10:21 | 39.08373 | 121.50837 | 13927 ft | 334 kts | 75° |
| 2026-04-28 10:21 | 39.08863 | 121.53742 | 14590 ft | 338 kts | 75° |
| 2026-04-28 10:21 | 39.09356 | 121.56679 | 15283 ft | 341 kts | 74° |
| 2026-04-28 10:21 | 39.09862 | 121.59694 | 15996 ft | 344 kts | 74° |
| 2026-04-28 10:22 | 39.10372 | 121.62701 | 16682 ft | 348 kts | 74° |
| 2026-04-28 10:22 | 39.10898 | 121.65754 | 17324 ft | 352 kts | 74° |
| 2026-04-28 10:22 | 39.11425 | 121.68835 | 17987 ft | 354 kts | 75° |
| 2026-04-28 10:22 | 39.11951 | 121.71929 | 18628 ft | 357 kts | 75° |
| 2026-04-28 10:23 | 39.12476 | 121.75035 | 19168 ft | 362 kts | 75° |
| 2026-04-28 10:23 | 39.13014 | 121.78246 | 19597 ft | 369 kts | 75° |
| 2026-04-28 10:23 | 39.13562 | 121.81521 | 19982 ft | 378 kts | 75° |
| 2026-04-28 10:23 | 39.14117 | 121.84839 | 20376 ft | 385 kts | 75° |
| 2026-04-28 10:24 | 39.14682 | 121.88213 | 20815 ft | 391 kts | 75° |
| 2026-04-28 10:24 | 39.15247 | 121.91641 | 21287 ft | 396 kts | 73° |
| 2026-04-28 10:24 | 39.15830 | 121.95151 | 21635 ft | 404 kts | 73° |
| 2026-04-28 10:24 | 39.16416 | 121.98686 | 21970 ft | 412 kts | 73° |
| 2026-04-28 10:25 | 39.17020 | 122.02324 | 22329 ft | 419 kts | 73° |
| 2026-04-28 10:25 | 39.17634 | 122.06035 | 22670 ft | 426 kts | 73° |
| 2026-04-28 10:25 | 39.18253 | 122.09802 | 23010 ft | 433 kts | 73° |